createdAt,value
2018-10-06T00:00:47.236Z,5.50
2018-10-06T00:03:15.101Z,5.70
2018-10-06T00:05:42.768Z,5.23
2018-10-06T00:08:10.455Z,5.27
2018-10-06T00:10:38.033Z,5.47
2018-10-06T00:13:05.600Z,5.67
2018-10-06T00:15:33.421Z,5.87
2018-10-06T00:18:01.148Z,6.40
2018-10-06T00:20:28.710Z,6.22
2018-10-06T00:22:56.440Z,6.00
2018-10-06T00:25:23.966Z,5.80
2018-10-06T00:27:51.490Z,5.93
2018-10-06T00:30:19.291Z,6.40
2018-10-06T00:32:46.848Z,5.70
2018-10-06T00:35:14.582Z,6.27
2018-10-06T00:37:42.388Z,6.77
2018-10-06T00:40:10.157Z,6.10
2018-10-06T00:42:37.713Z,6.63
2018-10-06T00:45:05.238Z,5.87
2018-10-06T00:47:32.830Z,6.27
2018-10-06T00:50:00.354Z,6.33
2018-10-06T00:52:28.016Z,6.00
2018-10-06T00:54:55.564Z,6.40
2018-10-06T00:57:23.337Z,6.30
2018-10-06T00:59:50.861Z,6.30
2018-10-06T01:02:18.420Z,6.17
2018-10-06T01:04:46.043Z,6.23
2018-10-06T01:07:13.625Z,6.33
2018-10-06T01:09:41.275Z,6.17
2018-10-06T01:12:08.862Z,5.93
2018-10-06T01:14:36.645Z,5.87
2018-10-06T01:17:04.249Z,6.73
2018-10-06T01:19:32.006Z,6.63
2018-10-06T01:21:59.589Z,7.00
2018-10-06T01:24:27.406Z,6.37
2018-10-06T01:26:55.315Z,6.57
2018-10-06T01:29:22.948Z,7.07
2018-10-06T01:31:50.498Z,6.50
2018-10-06T01:34:18.115Z,6.73
2018-10-06T01:36:45.627Z,6.72
2018-10-06T01:39:13.252Z,6.70
2018-10-06T01:41:40.789Z,6.63
2018-10-06T01:44:08.380Z,6.87
2018-10-06T01:46:35.924Z,7.12
2018-10-06T01:49:03.555Z,6.43
2018-10-06T01:51:31.097Z,6.17
2018-10-06T01:53:58.642Z,6.60
2018-10-06T01:56:26.320Z,6.77
2018-10-06T01:58:53.904Z,6.23
2018-10-06T02:01:21.454Z,6.90
2018-10-06T02:03:49.031Z,6.83
2018-10-06T02:06:16.652Z,6.97
2018-10-06T02:08:44.338Z,6.63
2018-10-06T02:11:11.882Z,6.10
2018-10-06T02:13:39.615Z,5.77
2018-10-06T02:16:07.464Z,6.50
2018-10-06T02:18:35.140Z,6.15
2018-10-06T02:21:02.942Z,5.97
2018-10-06T02:23:30.679Z,6.80
2018-10-06T02:25:58.561Z,6.43
2018-10-06T02:28:26.165Z,6.33
2018-10-06T02:30:53.744Z,6.90
2018-10-06T02:33:21.761Z,6.13
2018-10-06T02:35:49.608Z,6.97
2018-10-06T02:38:17.357Z,5.93
2018-10-06T02:40:45.198Z,6.40
2018-10-06T02:43:12.757Z,6.80
2018-10-06T02:45:40.486Z,6.70
2018-10-06T02:48:08.080Z,6.10
2018-10-06T02:50:35.618Z,6.97
2018-10-06T02:53:03.743Z,7.07
2018-10-06T02:55:31.284Z,6.60
2018-10-06T02:57:58.818Z,6.15
2018-10-06T03:00:26.687Z,7.10
2018-10-06T03:02:54.222Z,6.43
2018-10-06T03:05:21.811Z,5.87
2018-10-06T03:07:49.351Z,6.07
2018-10-06T03:10:16.972Z,6.53
2018-10-06T03:12:44.579Z,7.67
2018-10-06T03:15:12.123Z,6.23
2018-10-06T03:17:39.978Z,6.90
2018-10-06T03:20:07.557Z,6.90
2018-10-06T03:22:35.119Z,7.15
2018-10-06T03:25:02.653Z,6.57
2018-10-06T03:27:30.246Z,6.73
2018-10-06T03:29:57.761Z,6.37
2018-10-06T03:32:25.374Z,7.40
2018-10-06T03:34:53.092Z,7.47
2018-10-06T03:37:20.688Z,6.80
2018-10-06T03:39:48.417Z,6.63
2018-10-06T03:42:15.961Z,6.30
2018-10-06T03:44:43.819Z,6.90
2018-10-06T03:47:11.500Z,7.10
2018-10-06T03:49:39.227Z,6.60
2018-10-06T03:52:07.013Z,6.40
2018-10-06T03:54:35.047Z,6.90
2018-10-06T03:57:02.816Z,6.57
2018-10-06T03:59:30.382Z,6.83
2018-10-06T04:01:57.900Z,6.27
2018-10-06T04:04:25.478Z,6.40
2018-10-06T04:06:53.167Z,6.37
2018-10-06T04:09:20.710Z,6.30
2018-10-06T04:11:48.291Z,6.53
2018-10-06T04:14:15.820Z,7.60
2018-10-06T04:16:43.461Z,8.27
2018-10-06T04:19:11.027Z,8.20
2018-10-06T04:21:38.543Z,7.50
2018-10-06T04:24:06.149Z,7.63
2018-10-06T04:26:33.916Z,6.70
2018-10-06T04:29:01.472Z,6.77
2018-10-06T04:31:29.037Z,6.77
2018-10-06T04:33:56.571Z,6.43
2018-10-06T04:36:24.120Z,7.07
2018-10-06T04:38:51.692Z,7.37
2018-10-06T04:41:19.276Z,6.73
2018-10-06T04:43:47.007Z,7.70
2018-10-06T04:46:14.574Z,7.87
2018-10-06T04:48:42.101Z,6.80
2018-10-06T04:51:09.688Z,6.73
2018-10-06T04:53:37.223Z,6.50
2018-10-06T04:56:04.793Z,7.40
2018-10-06T04:58:32.326Z,7.25
2018-10-06T05:00:59.928Z,6.63
2018-10-06T05:03:27.500Z,6.90
2018-10-06T05:05:55.169Z,6.63
2018-10-06T05:08:22.908Z,6.70
2018-10-06T05:10:50.596Z,7.00
2018-10-06T05:13:18.132Z,6.90
2018-10-06T05:15:45.689Z,6.70
2018-10-06T05:18:13.216Z,6.90
2018-10-06T05:20:40.889Z,6.57
2018-10-06T05:23:08.548Z,7.30
2018-10-06T05:25:36.064Z,6.90
2018-10-06T05:28:04.029Z,6.03
2018-10-06T05:30:31.598Z,5.80
2018-10-06T05:32:59.257Z,6.80
2018-10-06T05:35:26.805Z,6.60
2018-10-06T05:37:54.358Z,7.37
2018-10-06T05:40:21.913Z,6.30
2018-10-06T05:42:49.433Z,6.37
2018-10-06T05:45:17.212Z,6.40
2018-10-06T05:47:44.738Z,5.83
2018-10-06T05:50:12.267Z,6.23
2018-10-06T05:52:39.820Z,6.47
2018-10-06T05:55:07.367Z,5.97
2018-10-06T05:57:34.874Z,6.57
2018-10-06T06:00:02.441Z,5.90
2018-10-06T06:02:29.977Z,6.00
2018-10-06T06:04:57.504Z,6.43
2018-10-06T06:07:25.065Z,6.07
2018-10-06T06:09:52.711Z,5.53
2018-10-06T06:12:20.181Z,6.60
2018-10-06T06:14:47.919Z,5.93
2018-10-06T06:17:15.502Z,5.57
2018-10-06T06:19:43.046Z,5.73
2018-10-06T06:22:10.594Z,5.23
2018-10-06T06:24:38.135Z,5.27
2018-10-06T06:27:05.844Z,5.33
2018-10-06T06:29:33.361Z,5.70
2018-10-06T06:32:00.882Z,5.40
2018-10-06T06:34:28.590Z,6.47
2018-10-06T06:36:56.217Z,5.10
2018-10-06T06:39:23.866Z,5.13
2018-10-06T06:41:51.590Z,5.37
2018-10-06T06:44:19.398Z,5.07
2018-10-06T06:46:46.974Z,4.87
2018-10-06T06:49:14.539Z,4.27
2018-10-06T06:51:42.979Z,5.07
2018-10-06T06:54:10.720Z,4.80
2018-10-06T06:56:38.455Z,4.27
2018-10-06T06:59:06.168Z,4.57
2018-10-06T07:01:33.888Z,5.03
2018-10-06T07:04:01.409Z,4.70
2018-10-06T07:06:28.965Z,4.45
2018-10-06T07:08:56.523Z,4.67
2018-10-06T07:11:24.089Z,5.03
2018-10-06T07:13:51.619Z,4.70
2018-10-06T07:16:19.181Z,4.37
2018-10-06T07:18:46.741Z,4.40
2018-10-06T07:21:14.306Z,4.13
2018-10-06T07:23:42.012Z,4.30
2018-10-06T07:26:09.631Z,3.97
2018-10-06T07:28:38.127Z,3.67
2018-10-06T07:31:05.590Z,4.10
2018-10-06T07:33:33.171Z,4.50
2018-10-06T07:36:00.798Z,4.00
2018-10-06T07:38:28.591Z,3.85
2018-10-06T07:40:56.192Z,3.70
2018-10-06T07:43:23.805Z,4.30
2018-10-06T07:45:51.396Z,3.90
2018-10-06T07:48:18.925Z,4.10
2018-10-06T07:50:46.454Z,3.80
2018-10-06T07:53:15.768Z,4.20
2018-10-06T07:55:43.626Z,3.90
2018-10-06T07:58:11.317Z,4.10
2018-10-06T08:00:38.921Z,3.83
2018-10-06T08:03:06.605Z,4.23
2018-10-06T08:05:34.434Z,4.40
2018-10-06T08:08:02.077Z,4.10
2018-10-06T08:10:29.944Z,4.20
2018-10-06T08:12:58.943Z,3.65
2018-10-06T08:15:26.681Z,3.40
2018-10-06T08:17:54.322Z,4.37
2018-10-06T08:20:21.985Z,4.10
2018-10-06T08:22:49.889Z,3.80
2018-10-06T08:25:17.607Z,3.60
2018-10-06T08:27:45.277Z,3.90
2018-10-06T08:30:12.868Z,3.97
2018-10-06T08:32:40.584Z,4.00
2018-10-06T08:35:08.229Z,3.37
2018-10-06T08:37:36.018Z,4.27
2018-10-06T08:40:03.721Z,4.17
2018-10-06T08:42:31.308Z,4.00
2018-10-06T08:44:58.957Z,3.80
2018-10-06T08:47:26.862Z,3.87
2018-10-06T08:58:32.892Z,3.90
2018-10-06T09:01:00.586Z,4.17
2018-10-06T09:03:28.234Z,4.00
2018-10-06T09:05:55.816Z,4.33
2018-10-06T09:08:23.405Z,3.57
2018-10-06T09:10:51.059Z,3.50
2018-10-06T09:13:18.711Z,3.97
2018-10-06T09:15:46.293Z,4.10
2018-10-06T09:18:13.833Z,3.90
2018-10-06T09:20:41.392Z,3.40
2018-10-06T09:23:09.076Z,3.30
2018-10-06T09:25:36.655Z,4.00
2018-10-06T09:28:04.244Z,3.67
2018-10-06T09:30:31.750Z,3.78
2018-10-06T09:32:59.351Z,3.70
2018-10-06T09:35:26.891Z,4.10
2018-10-06T09:43:37.851Z,3.27
2018-10-06T09:46:05.351Z,3.87
2018-10-06T09:48:32.894Z,3.13
2018-10-06T09:51:00.442Z,3.50
2018-10-06T09:53:28.098Z,3.63
2018-10-06T09:55:55.620Z,3.60
2018-10-06T09:58:23.176Z,3.10
2018-10-06T10:00:50.755Z,3.53
2018-10-06T10:03:19.076Z,3.23
2018-10-06T10:05:46.716Z,2.93
2018-10-06T10:08:14.333Z,3.10
2018-10-06T10:10:41.948Z,2.93
2018-10-06T10:13:09.482Z,3.43
2018-10-06T10:15:37.002Z,3.20
2018-10-06T10:18:04.627Z,3.57
2018-10-06T10:20:32.144Z,3.58
2018-10-06T10:22:59.736Z,3.47
2018-10-06T10:25:27.286Z,3.20
2018-10-06T10:27:54.838Z,3.20
2018-10-06T10:30:22.387Z,3.10
2018-10-06T10:32:49.937Z,3.27
2018-10-06T10:35:17.444Z,3.80
2018-10-06T10:37:45.139Z,3.30
2018-10-06T10:40:12.867Z,3.40
2018-10-06T10:42:41.597Z,4.07
2018-10-06T10:53:47.244Z,2.77
2018-10-06T12:19:41.185Z,2.70
2018-10-06T12:22:08.830Z,3.00
2018-10-06T12:24:36.355Z,2.97
2018-10-06T12:27:04.094Z,3.00
2018-10-06T12:29:31.686Z,3.27
2018-10-06T12:31:59.257Z,3.37
2018-10-06T20:00:26.904Z,4.50
2018-10-06T20:02:54.624Z,3.90
2018-10-06T20:05:22.212Z,4.27
2018-10-06T20:07:49.836Z,3.90
2018-10-06T21:27:59.861Z,4.97
2018-10-06T21:30:29.780Z,5.30
2018-10-06T21:32:57.536Z,5.17
2018-10-06T21:35:25.216Z,4.70
